Time;durP1;ratioP1;P1;durP2;ratioP2;P2;SDS_P1;SDS_P2;PMS_P1;PMS_P2;Temp;Humidity;BMP_temperature;BMP_pressure;BME280_temperature;BME280_humidity;BME280_pressure;Samples;Min_cycle;Max_cycle;Signal;HPM_P1;HPM_P2
2021/03/24 00:00:42;;;;;;;5.45;4.55;;;5.80;99.90;;;;;;5026652;28;20391;-77
2021/03/24 00:03:08;;;;;;;4.30;3.90;;;5.70;99.90;;;;;;5039401;28;20396;-77
2021/03/24 00:05:35;;;;;;;4.70;4.28;;;5.70;99.90;;;;;;5027056;28;20461;-77
2021/03/24 00:08:02;;;;;;;5.63;4.28;;;5.70;99.90;;;;;;5057163;28;21119;-77
2021/03/24 00:10:28;;;;;;;4.97;4.43;;;5.70;99.90;;;;;;5042247;28;20862;-79
2021/03/24 00:12:54;;;;;;;4.65;4.15;;;5.70;99.90;;;;;;5055659;28;20399;-77
2021/03/24 00:15:20;;;;;;;5.15;4.65;;;5.80;99.90;;;;;;5015263;28;20897;-77
2021/03/24 00:17:46;;;;;;;5.82;4.35;;;5.70;99.90;;;;;;5031174;28;20493;-77
2021/03/24 00:20:12;;;;;;;5.00;4.50;;;5.70;99.90;;;;;;5048633;28;20419;-76
2021/03/24 00:22:38;;;;;;;5.13;4.10;;;5.70;99.90;;;;;;5016778;28;20494;-77
2021/03/24 00:25:05;;;;;;;5.10;4.30;;;5.70;99.90;;;;;;5049627;28;20566;-77
2021/03/24 00:27:31;;;;;;;4.37;3.97;;;5.70;99.90;;;;;;5032897;28;20402;-78
2021/03/24 00:29:57;;;;;;;5.83;4.40;;;5.70;99.90;;;;;;5063007;28;20728;-79
2021/03/24 00:32:23;;;;;;;4.85;4.35;;;5.70;99.90;;;;;;5027855;28;20403;-79
2021/03/24 00:34:48;;;;;;;4.95;4.45;;;5.70;99.90;;;;;;5028976;28;20404;-78
2021/03/24 00:37:14;;;;;;;5.10;4.47;;;5.70;99.90;;;;;;5057221;28;20830;-78
2021/03/24 00:39:40;;;;;;;6.17;4.23;;;5.70;99.90;;;;;;5069922;28;20955;-78
2021/03/24 00:42:06;;;;;;;5.70;4.47;;;5.80;99.90;;;;;;5057350;28;20421;-78
2021/03/24 00:44:32;;;;;;;5.30;4.80;;;5.70;99.90;;;;;;5040088;28;20884;-79
2021/03/24 00:46:57;;;;;;;5.65;4.78;;;5.70;99.90;;;;;;5040187;28;20401;-78
2021/03/24 00:49:27;;;;;;;5.77;4.40;;;5.70;99.90;;;;;;5014542;28;20389;-78
2021/03/24 00:51:53;;;;;;;5.28;4.78;;;5.70;99.90;;;;;;5034501;28;20822;-76
2021/03/24 00:54:19;;;;;;;6.63;4.80;;;5.70;99.90;;;;;;5067335;28;20394;-76
2021/03/24 00:56:45;;;;;;;4.82;4.38;;;5.70;99.90;;;;;;5049545;28;20430;-76
2021/03/24 00:59:10;;;;;;;4.90;4.50;;;5.70;99.90;;;;;;5019916;28;20405;-76
2021/03/24 01:01:36;;;;;;;5.40;4.73;;;5.70;99.90;;;;;;5036269;28;20400;-77
2021/03/24 01:04:02;;;;;;;4.82;4.40;;;5.70;99.90;;;;;;5025610;28;21069;-76
2021/03/24 01:06:28;;;;;;;6.75;4.78;;;5.70;99.90;;;;;;5026742;28;20414;-77
2021/03/24 01:08:55;;;;;;;5.28;4.75;;;5.70;99.90;;;;;;5057001;28;20391;-77
2021/03/24 01:11:21;;;;;;;5.22;4.65;;;5.70;99.90;;;;;;5048959;28;20555;-77
2021/03/24 01:13:46;;;;;;;4.80;4.30;;;5.70;99.90;;;;;;5041817;28;20413;-77
2021/03/24 01:16:12;;;;;;;5.87;4.83;;;5.70;99.90;;;;;;5049432;28;20393;-77
2021/03/24 01:18:38;;;;;;;5.25;4.70;;;5.70;99.90;;;;;;5042683;28;20794;-77
2021/03/24 01:21:03;;;;;;;5.83;4.43;;;5.70;99.90;;;;;;5051754;28;20411;-76
2021/03/24 01:23:29;;;;;;;5.67;4.87;;;5.60;99.90;;;;;;5029472;28;20758;-76
2021/03/24 01:25:55;;;;;;;5.57;4.72;;;5.70;99.90;;;;;;5028919;28;20417;-77
2021/03/24 01:28:26;;;;;;;5.40;4.70;;;5.60;99.90;;;;;;5046767;28;20752;-77
2021/03/24 01:30:56;;;;;;;6.07;4.75;;;5.60;99.90;;;;;;5029942;28;20426;-76
2021/03/24 01:33:22;;;;;;;6.00;4.63;;;5.60;99.90;;;;;;5017297;28;20443;-78
2021/03/24 01:35:48;;;;;;;5.50;5.00;;;5.60;99.90;;;;;;5035589;28;20987;-78
2021/03/24 01:38:13;;;;;;;6.30;4.97;;;5.60;99.90;;;;;;5031371;28;20409;-78
2021/03/24 01:40:41;;;;;;;5.28;4.78;;;5.60;99.90;;;;;;5026358;28;20409;-78
2021/03/24 01:43:19;;;;;;;6.38;4.82;;;5.60;99.90;;;;;;5033865;28;20426;-77
2021/03/24 01:46:23;;;;;;;5.13;4.63;;;5.60;99.90;;;;;;5046755;28;20391;-77
2021/03/24 01:49:01;;;;;;;5.32;4.80;;;5.60;99.90;;;;;;5032569;28;20407;-76
2021/03/24 01:51:36;;;;;;;5.68;4.93;;;5.60;99.90;;;;;;5035509;28;20395;-80
2021/03/24 01:54:03;;;;;;;6.32;5.10;;;5.60;99.90;;;;;;5048323;28;20406;-80
2021/03/24 01:56:29;;;;;;;5.63;5.00;;;5.60;99.90;;;;;;5039624;28;20424;-80
2021/03/24 01:58:55;;;;;;;5.80;5.07;;;5.60;99.90;;;;;;5038408;28;20411;-80
2021/03/24 02:01:21;;;;;;;5.57;5.00;;;5.60;99.90;;;;;;5053149;28;20454;-80
2021/03/24 02:03:47;;;;;;;6.50;5.05;;;5.60;99.90;;;;;;5040914;28;20419;-81
2021/03/24 02:06:26;;;;;;;7.43;5.35;;;5.60;99.90;;;;;;5034795;28;20408;-79
2021/03/24 02:08:58;;;;;;;6.68;5.25;;;5.60;99.90;;;;;;5041013;28;20406;-80
2021/03/24 02:11:29;;;;;;;6.00;5.35;;;5.50;99.90;;;;;;5031713;28;20408;-80
2021/03/24 02:14:02;;;;;;;5.20;4.72;;;5.50;99.90;;;;;;5017476;28;20400;-79
2021/03/24 02:16:31;;;;;;;5.20;4.68;;;5.60;99.90;;;;;;5033257;28;20408;-78
2021/03/24 02:18:58;;;;;;;6.10;5.25;;;5.60;99.90;;;;;;5049722;28;20479;-78
2021/03/24 02:21:24;;;;;;;6.10;5.50;;;5.50;99.90;;;;;;5026151;28;20413;-79
2021/03/24 02:23:58;;;;;;;6.80;5.28;;;5.50;99.90;;;;;;5055554;28;20392;-79
2021/03/24 02:26:48;;;;;;;6.15;5.45;;;5.50;99.90;;;;;;5049546;28;20617;-80
2021/03/24 02:29:17;;;;;;;6.50;5.28;;;5.50;99.90;;;;;;5036120;28;20387;-80
2021/03/24 02:31:43;;;;;;;6.43;5.30;;;5.50;99.90;;;;;;5014815;28;20403;-80
2021/03/24 02:34:10;;;;;;;6.82;5.50;;;5.50;99.90;;;;;;5039210;28;20400;-80
2021/03/24 02:36:36;;;;;;;6.05;5.45;;;5.50;99.90;;;;;;5053442;28;20416;-79
2021/03/24 02:39:05;;;;;;;6.15;5.55;;;5.50;99.90;;;;;;5026477;28;20425;-79
2021/03/24 02:41:31;;;;;;;6.30;5.68;;;5.60;99.90;;;;;;5025714;28;20485;-79
2021/03/24 02:43:56;;;;;;;6.00;5.40;;;5.50;99.90;;;;;;5068325;28;20490;-79
2021/03/24 02:46:22;;;;;;;6.53;5.50;;;5.50;99.90;;;;;;5029638;28;20412;-78
2021/03/24 02:48:48;;;;;;;5.93;5.20;;;5.50;99.90;;;;;;5073347;28;20409;-80
2021/03/24 02:51:19;;;;;;;7.53;6.03;;;5.50;99.90;;;;;;5002966;28;20391;-80
2021/03/24 02:53:44;;;;;;;7.40;6.03;;;5.50;99.90;;;;;;5039549;28;20472;-80
2021/03/24 02:56:11;;;;;;;8.75;5.97;;;5.50;99.90;;;;;;5044842;28;20518;-79
2021/03/24 02:58:37;;;;;;;5.18;4.68;;;5.50;99.90;;;;;;5015591;28;20981;-79
2021/03/24 03:01:06;;;;;;;6.45;5.53;;;5.40;99.90;;;;;;5023687;28;20469;-78
2021/03/24 03:03:40;;;;;;;6.72;5.68;;;5.50;99.90;;;;;;5046163;28;20406;-79
2021/03/24 03:06:07;;;;;;;6.40;5.35;;;5.50;99.90;;;;;;5030053;28;20394;-80
2021/03/24 03:08:34;;;;;;;5.30;4.80;;;5.60;99.90;;;;;;5026306;28;20403;-79
2021/03/24 03:11:04;;;;;;;6.22;5.63;;;5.50;99.90;;;;;;5047463;28;20422;-80
2021/03/24 03:13:39;;;;;;;8.27;5.93;;;5.50;99.90;;;;;;5056540;28;20455;-80
2021/03/24 03:16:26;;;;;;;6.63;5.88;;;5.40;99.90;;;;;;5030719;28;20406;-80
2021/03/24 03:18:55;;;;;;;5.75;5.25;;;5.50;99.90;;;;;;5061550;28;20500;-79
2021/03/24 03:21:28;;;;;;;6.00;5.40;;;5.60;99.90;;;;;;5053101;28;21143;-79
2021/03/24 03:23:54;;;;;;;7.47;5.78;;;5.50;99.90;;;;;;5065087;28;20404;-80
2021/03/24 03:26:21;;;;;;;7.45;5.85;;;5.40;99.90;;;;;;5014251;28;21055;-79
2021/03/24 03:28:49;;;;;;;6.22;5.63;;;5.50;99.90;;;;;;5014578;28;20433;-79
2021/03/24 03:31:17;;;;;;;5.72;4.97;;;5.40;99.90;;;;;;5042545;28;20397;-79
2021/03/24 03:33:45;;;;;;;6.75;5.70;;;5.40;99.90;;;;;;5040779;28;20740;-78
2021/03/24 03:36:11;;;;;;;6.03;5.43;;;5.40;99.90;;;;;;5050985;28;20391;-79
2021/03/24 03:38:37;;;;;;;5.57;5.05;;;5.40;99.90;;;;;;5042790;28;20409;-79
2021/03/24 03:41:04;;;;;;;6.03;5.43;;;5.40;99.90;;;;;;5059492;28;20741;-79
2021/03/24 03:43:30;;;;;;;7.15;5.53;;;5.50;99.90;;;;;;5033288;28;20400;-78
2021/03/24 03:45:58;;;;;;;5.83;5.33;;;5.50;99.90;;;;;;5046032;28;20476;-78
2021/03/24 03:48:23;;;;;;;6.65;5.22;;;5.60;99.90;;;;;;5017372;28;20402;-78
2021/03/24 03:51:01;;;;;;;6.88;5.38;;;5.50;99.90;;;;;;5039223;28;20410;-79
2021/03/24 03:53:37;;;;;;;5.82;5.25;;;5.50;99.90;;;;;;5051316;28;20490;-79
2021/03/24 03:56:14;;;;;;;6.88;5.30;;;5.50;99.90;;;;;;5029061;28;20419;-79
2021/03/24 03:59:09;;;;;;;6.87;6.17;;;5.50;99.90;;;;;;5064949;28;20408;-79
2021/03/24 04:01:47;;;;;;;6.72;5.95;;;5.40;99.90;;;;;;5072752;28;20768;-78
2021/03/24 04:04:34;;;;;;;6.40;5.78;;;5.40;99.90;;;;;;5066664;28;20422;-79
2021/03/24 04:07:04;;;;;;;6.78;5.88;;;5.40;99.90;;;;;;5077120;28;20773;-77
2021/03/24 04:09:30;;;;;;;7.35;6.10;;;5.40;99.90;;;;;;5069662;28;20388;-78
2021/03/24 04:11:56;;;;;;;6.30;5.67;;;5.40;99.90;;;;;;5048907;28;20419;-77
2021/03/24 04:14:27;;;;;;;7.03;5.85;;;5.40;99.90;;;;;;5047813;28;20407;-76
2021/03/24 04:16:53;;;;;;;7.28;6.18;;;5.50;99.90;;;;;;5050748;28;20521;-76
2021/03/24 04:19:21;;;;;;;7.45;6.18;;;5.50;99.90;;;;;;5023374;28;20426;-76
2021/03/24 04:21:49;;;;;;;6.30;5.75;;;5.50;99.90;;;;;;5041214;28;20391;-79
2021/03/24 04:24:22;;;;;;;7.13;5.65;;;5.50;99.90;;;;;;5019680;28;20421;-79
2021/03/24 04:26:49;;;;;;;6.10;5.50;;;5.60;99.90;;;;;;5034253;28;20392;-79
2021/03/24 04:29:32;;;;;;;6.47;5.80;;;5.40;99.90;;;;;;5057080;28;20402;-78
2021/03/24 04:31:59;;;;;;;6.75;6.05;;;5.50;99.90;;;;;;5025746;28;20400;-76
2021/03/24 04:34:25;;;;;;;6.90;6.20;;;5.50;99.90;;;;;;5045669;28;20460;-77
2021/03/24 04:37:25;;;;;;;6.72;6.07;;;5.50;99.90;;;;;;5016947;28;20531;-76
2021/03/24 04:40:03;;;;;;;6.15;5.25;;;5.50;99.90;;;;;;5056028;28;20539;-77
2021/03/24 04:42:36;;;;;;;7.07;5.75;;;5.50;99.90;;;;;;5031717;28;20510;-77
2021/03/24 04:45:09;;;;;;;6.13;5.53;;;5.50;99.90;;;;;;5044511;28;20490;-77
2021/03/24 04:47:34;;;;;;;7.47;6.43;;;5.50;99.90;;;;;;5046895;28;20900;-78
2021/03/24 04:50:07;;;;;;;7.33;5.83;;;5.40;99.90;;;;;;5020067;28;20383;-79
2021/03/24 04:52:34;;;;;;;8.13;6.78;;;5.50;99.90;;;;;;5047470;28;20386;-78
2021/03/24 04:55:04;;;;;;;7.70;6.60;;;5.50;99.90;;;;;;5041732;28;20387;-78
2021/03/24 04:57:30;;;;;;;6.70;6.00;;;5.50;99.90;;;;;;5029648;28;20398;-78
2021/03/24 05:00:01;;;;;;;8.73;6.35;;;5.40;99.90;;;;;;5030546;28;20390;-78
2021/03/24 05:02:28;;;;;;;7.20;6.38;;;5.40;99.90;;;;;;5044169;28;21281;-77
2021/03/24 05:05:02;;;;;;;8.50;6.30;;;5.40;99.90;;;;;;5042210;28;20389;-78
2021/03/24 05:07:34;;;;;;;7.20;6.20;;;5.50;99.90;;;;;;5041159;28;20890;-77
2021/03/24 05:09:59;;;;;;;7.07;6.10;;;5.40;99.90;;;;;;5035712;28;20408;-77
2021/03/24 05:12:27;;;;;;;8.37;6.53;;;5.40;99.90;;;;;;5026201;28;20903;-77
2021/03/24 05:15:00;;;;;;;7.88;6.15;;;5.30;99.90;;;;;;5031918;28;20399;-77
2021/03/24 05:17:33;;;;;;;8.00;6.65;;;5.30;99.90;;;;;;5058775;28;20785;-78
2021/03/24 05:20:01;;;;;;;8.00;6.60;;;5.30;99.90;;;;;;5057775;28;20402;-78
2021/03/24 05:22:30;;;;;;;8.75;6.95;;;5.30;99.90;;;;;;5024124;28;20404;-77
2021/03/24 05:25:06;;;;;;;8.25;7.00;;;5.30;99.90;;;;;;5028226;28;20392;-76
2021/03/24 05:27:35;;;;;;;8.85;6.68;;;5.30;99.90;;;;;;5057266;28;20815;-76
2021/03/24 05:30:11;;;;;;;7.55;6.78;;;5.30;99.90;;;;;;5036336;28;20382;-75
2021/03/24 05:32:41;;;;;;;7.47;6.68;;;5.30;99.90;;;;;;5051553;28;20384;-76
2021/03/24 05:35:24;;;;;;;7.20;6.50;;;5.30;99.90;;;;;;5041727;28;20759;-76
2021/03/24 05:37:49;;;;;;;8.20;7.13;;;5.40;99.90;;;;;;5054136;28;20440;-76
2021/03/24 05:40:33;;;;;;;8.67;7.23;;;5.40;99.90;;;;;;5014291;28;20465;-78
2021/03/24 05:43:12;;;;;;;8.02;7.18;;;5.40;99.90;;;;;;5037522;28;20481;-77
2021/03/24 05:45:49;;;;;;;9.82;7.65;;;5.40;99.90;;;;;;5039600;28;20411;-77
2021/03/24 05:49:05;;;;;;;9.70;7.57;;;5.50;99.90;;;;;;5019308;28;20469;-78
2021/03/24 05:51:54;;;;;;;8.32;7.28;;;5.50;99.90;;;;;;5020209;28;20396;-78
2021/03/24 05:54:34;;;;;;;10.35;7.82;;;5.50;99.90;;;;;;5037203;28;20754;-78
2021/03/24 05:57:05;;;;;;;8.10;7.30;;;5.50;99.90;;;;;;5043989;28;20386;-79
2021/03/24 05:59:55;;;;;;;11.27;8.02;;;5.60;99.90;;;;;;5033662;28;20404;-78
2021/03/24 06:02:47;;;;;;;11.02;8.40;;;5.60;99.90;;;;;;5048106;28;20818;-77
2021/03/24 06:05:24;;;;;;;10.23;8.50;;;5.60;99.90;;;;;;5036694;28;20484;-77
2021/03/24 06:08:09;;;;;;;9.45;8.05;;;5.70;99.90;;;;;;5050174;28;20386;-78
2021/03/24 06:10:40;;;;;;;10.50;7.70;;;5.70;99.90;;;;;;5047429;28;20489;-79
2021/03/24 06:21:06;;;;;;;11.75;9.35;;;5.80;99.90;;;;;;5250611;23;20414;-80
2021/03/24 06:23:51;;;;;;;13.13;9.35;;;5.80;99.90;;;;;;4860526;29;20410;-78
2021/03/24 06:26:54;;;;;;;13.63;9.65;;;5.90;99.90;;;;;;4882806;29;20398;-78
2021/03/24 06:29:46;;;;;;;10.98;9.75;;;5.90;99.90;;;;;;4889933;29;21019;-79
2021/03/24 06:32:31;;;;;;;11.40;9.10;;;6.00;99.90;;;;;;4881903;29;20427;-78
2021/03/24 06:35:05;;;;;;;12.57;10.10;;;6.00;99.90;;;;;;4881344;29;20465;-76
2021/03/24 06:37:40;;;;;;;10.32;8.75;;;6.00;99.90;;;;;;4884557;29;20430;-76
2021/03/24 06:40:24;;;;;;;11.03;9.30;;;6.10;99.90;;;;;;4887555;29;20498;-77
2021/03/24 06:42:59;;;;;;;11.32;9.63;;;6.10;99.90;;;;;;4858175;29;20420;-76
2021/03/24 06:45:45;;;;;;;12.80;10.00;;;6.10;99.90;;;;;;4871682;29;20908;-76
2021/03/24 06:48:41;;;;;;;11.95;9.02;;;6.10;99.90;;;;;;4883215;29;20406;-76
2021/03/24 06:51:10;;;;;;;12.65;9.88;;;6.20;99.90;;;;;;4890124;29;20478;-76
2021/03/24 06:53:56;;;;;;;14.38;10.35;;;6.20;99.90;;;;;;4889940;29;20976;-76
2021/03/24 06:56:42;;;;;;;17.58;13.02;;;6.40;99.90;;;;;;4888251;29;20776;-76
2021/03/24 06:59:27;;;;;;;13.07;9.88;;;6.40;99.90;;;;;;4886063;29;20421;-75
2021/03/24 07:02:14;;;;;;;11.55;9.80;;;6.50;99.90;;;;;;4876078;29;20418;-76
2021/03/24 07:05:17;;;;;;;17.58;11.68;;;6.60;99.90;;;;;;4889626;29;20410;-76
2021/03/24 07:08:00;;;;;;;12.05;9.55;;;6.60;99.90;;;;;;4886323;29;20421;-76
2021/03/24 07:10:32;;;;;;;12.95;10.50;;;6.60;99.90;;;;;;4870912;29;20420;-78
2021/03/24 07:13:19;;;;;;;14.00;11.13;;;6.70;99.90;;;;;;4853337;29;20407;-78
2021/03/24 07:16:00;;;;;;;14.25;10.68;;;6.70;99.90;;;;;;4874956;29;20391;-77
2021/03/24 07:18:32;;;;;;;15.45;10.43;;;6.80;99.90;;;;;;4861669;29;20414;-79
2021/03/24 07:21:14;;;;;;;13.45;10.32;;;6.90;99.90;;;;;;4893321;29;20411;-79
2021/03/24 07:24:01;;;;;;;13.27;10.70;;;6.90;99.90;;;;;;4879120;29;20410;-78
2021/03/24 07:26:49;;;;;;;13.07;10.17;;;7.00;99.90;;;;;;4872675;29;20750;-78
2021/03/24 07:29:45;;;;;;;14.68;11.38;;;7.10;99.90;;;;;;4879817;29;20422;-78
2021/03/24 07:32:49;;;;;;;13.43;10.68;;;7.20;99.90;;;;;;4884529;29;20427;-79
2021/03/24 07:35:35;;;;;;;15.52;11.35;;;7.20;99.90;;;;;;4861616;29;20427;-78
2021/03/24 07:38:12;;;;;;;14.63;10.82;;;7.20;99.90;;;;;;4847563;29;20419;-78
2021/03/24 07:40:50;;;;;;;13.77;11.43;;;7.30;99.90;;;;;;4894181;29;21095;-78
2021/03/24 07:43:22;;;;;;;13.00;11.32;;;7.30;99.90;;;;;;4875533;29;20936;-77
2021/03/24 07:45:54;;;;;;;16.13;12.27;;;7.30;99.90;;;;;;4878027;29;20455;-78
2021/03/24 07:48:38;;;;;;;14.68;11.80;;;7.30;99.90;;;;;;4861667;29;20428;-79
2021/03/24 07:51:28;;;;;;;13.80;11.45;;;7.30;99.90;;;;;;4863335;29;20415;-79
2021/03/24 07:54:20;;;;;;;15.27;11.45;;;7.30;99.90;;;;;;4894093;29;20419;-79
2021/03/24 07:57:26;;;;;;;15.95;12.30;;;7.40;99.90;;;;;;4863491;29;20445;-80
2021/03/24 08:00:14;;;;;;;15.57;11.52;;;7.40;99.90;;;;;;4831698;29;20419;-80
2021/03/24 08:02:58;;;;;;;14.25;11.75;;;7.50;99.90;;;;;;4835526;29;20400;-79
2021/03/24 08:05:53;;;;;;;16.17;12.20;;;7.60;99.90;;;;;;4883714;29;20391;-79
2021/03/24 08:08:44;;;;;;;20.27;12.87;;;7.70;99.90;;;;;;4857719;29;20423;-78
2021/03/24 08:11:21;;;;;;;17.48;12.55;;;7.60;99.90;;;;;;4876201;29;20557;-78
2021/03/24 08:13:58;;;;;;;15.38;12.07;;;7.70;99.90;;;;;;4853729;29;21016;-76
2021/03/24 08:16:43;;;;;;;16.48;11.73;;;7.70;99.90;;;;;;4858010;29;20408;-77
2021/03/24 08:19:21;;;;;;;15.93;12.47;;;7.80;99.90;;;;;;4876406;29;20415;-76
2021/03/24 08:22:09;;;;;;;17.58;12.70;;;7.80;99.90;;;;;;4886281;29;20425;-76
2021/03/24 08:24:44;;;;;;;17.75;13.93;;;7.90;99.90;;;;;;4876601;29;20813;-76
2021/03/24 08:27:22;;;;;;;15.05;12.75;;;8.00;99.90;;;;;;4877573;29;20490;-76
2021/03/24 08:30:20;;;;;;;17.92;13.43;;;8.00;99.90;;;;;;4882286;29;20407;-76
2021/03/24 08:33:07;;;;;;;17.23;13.90;;;8.00;99.90;;;;;;4874534;29;20470;-74
2021/03/24 08:36:00;;;;;;;17.38;13.75;;;8.00;99.90;;;;;;4875674;29;20412;-76
2021/03/24 08:38:31;;;;;;;18.17;14.50;;;8.10;99.90;;;;;;4872337;29;20416;-76
2021/03/24 08:41:24;;;;;;;19.77;16.38;;;8.20;99.90;;;;;;4888819;29;20411;-76
2021/03/24 08:44:15;;;;;;;20.10;15.10;;;8.20;99.90;;;;;;4888956;29;20450;-74
2021/03/24 08:46:44;;;;;;;20.15;15.73;;;8.30;99.90;;;;;;4884319;29;20413;-77
2021/03/24 08:49:15;;;;;;;20.33;15.57;;;8.40;99.90;;;;;;4844303;29;20451;-76
2021/03/24 08:51:46;;;;;;;18.45;14.65;;;8.50;99.90;;;;;;4875839;29;20439;-74
2021/03/24 08:54:30;;;;;;;22.00;15.77;;;8.50;99.90;;;;;;4879149;29;20406;-75
2021/03/24 08:56:59;;;;;;;19.15;15.13;;;8.60;99.90;;;;;;4873673;29;21788;-74
2021/03/24 08:59:41;;;;;;;19.45;15.77;;;8.60;99.90;;;;;;4859924;29;20561;-78
2021/03/24 09:02:19;;;;;;;20.58;14.88;;;8.60;99.90;;;;;;4848953;29;20479;-77
2021/03/24 09:04:54;;;;;;;19.27;15.40;;;8.70;99.90;;;;;;4872367;29;20954;-77
2021/03/24 09:07:39;;;;;;;18.67;15.48;;;8.70;99.90;;;;;;4889965;29;20439;-77
2021/03/24 09:10:27;;;;;;;22.95;16.10;;;8.80;99.90;;;;;;4858764;29;20561;-78
2021/03/24 09:13:05;;;;;;;19.40;16.17;;;8.80;99.90;;;;;;4886635;29;20491;-77
2021/03/24 09:15:54;;;;;;;19.10;15.93;;;8.90;99.90;;;;;;4867976;29;20430;-77
2021/03/24 09:18:21;;;;;;;25.30;17.15;;;8.90;99.90;;;;;;4872121;29;20459;-77
2021/03/24 09:21:11;;;;;;;23.85;17.95;;;8.90;99.90;;;;;;4855917;29;20432;-77
2021/03/24 09:23:46;;;;;;;20.33;16.30;;;9.00;99.90;;;;;;4888802;29;20482;-79
2021/03/24 09:26:36;;;;;;;25.77;17.83;;;9.10;99.90;;;;;;4893294;29;20450;-78
2021/03/24 09:29:06;;;;;;;23.73;17.73;;;9.20;99.90;;;;;;4879093;29;20439;-79
2021/03/24 09:31:44;;;;;;;23.95;17.48;;;9.20;99.90;;;;;;4875967;29;20549;-77
2021/03/24 09:34:21;;;;;;;24.63;18.10;;;9.20;99.90;;;;;;4873796;29;20414;-75
2021/03/24 09:37:02;;;;;;;25.08;18.25;;;9.30;99.90;;;;;;4874471;29;20821;-76
2021/03/24 09:39:42;;;;;;;22.83;18.92;;;9.20;99.90;;;;;;4845894;29;20420;-76
2021/03/24 09:42:45;;;;;;;22.08;17.70;;;9.40;99.90;;;;;;4858018;29;20531;-76
2021/03/24 09:45:13;;;;;;;25.00;17.23;;;9.40;99.90;;;;;;4873625;29;20426;-76
2021/03/24 09:48:04;;;;;;;27.35;18.65;;;9.50;99.90;;;;;;4889754;29;20936;-74
2021/03/24 09:50:32;;;;;;;26.33;19.25;;;9.70;99.90;;;;;;4883868;29;20401;-75
2021/03/24 09:53:20;;;;;;;20.50;17.48;;;9.70;99.90;;;;;;4890210;29;20430;-76
2021/03/24 09:55:55;;;;;;;26.53;19.60;;;9.80;99.90;;;;;;4858738;29;21151;-76
2021/03/24 09:58:24;;;;;;;23.20;18.33;;;9.70;99.90;;;;;;4879118;29;20411;-75
2021/03/24 10:01:01;;;;;;;22.98;17.85;;;9.80;99.90;;;;;;4893511;29;20411;-76
2021/03/24 10:03:40;;;;;;;26.55;19.08;;;9.90;99.90;;;;;;4887557;29;20492;-76
2021/03/24 10:06:38;;;;;;;26.77;19.15;;;10.00;99.90;;;;;;4849327;29;20417;-76
2021/03/24 10:09:05;;;;;;;23.27;19.10;;;10.10;99.90;;;;;;4860133;29;20443;-76
2021/03/24 10:11:36;;;;;;;22.13;18.02;;;10.00;99.90;;;;;;4855198;29;20422;-74
2021/03/24 10:14:15;;;;;;;22.15;18.08;;;9.90;99.90;;;;;;4858057;29;20415;-76
2021/03/24 10:16:43;;;;;;;24.83;18.55;;;10.00;99.90;;;;;;4843454;29;20415;-76
2021/03/24 10:19:22;;;;;;;24.60;19.70;;;10.10;99.90;;;;;;4843923;29;20418;-76
2021/03/24 10:21:52;;;;;;;24.10;19.40;;;10.00;99.90;;;;;;4874007;29;20432;-76
2021/03/24 10:24:19;;;;;;;24.65;18.80;;;9.90;99.90;;;;;;4858368;29;20419;-76
2021/03/24 10:26:50;;;;;;;24.27;19.20;;;10.00;99.90;;;;;;4859129;29;20406;-76
2021/03/24 10:29:26;;;;;;;29.55;19.42;;;10.10;99.90;;;;;;4857987;29;20437;-75
2021/03/24 10:31:56;;;;;;;29.67;20.33;;;10.10;99.90;;;;;;4839701;29;20467;-75
2021/03/24 10:34:34;;;;;;;23.83;19.67;;;10.20;99.90;;;;;;4873947;29;20409;-82
2021/03/24 10:37:06;;;;;;;27.23;20.23;;;10.40;99.90;;;;;;4857536;29;20708;-78
2021/03/24 10:39:41;;;;;;;25.23;18.60;;;10.50;99.90;;;;;;4874496;29;20427;-77
2021/03/24 10:42:29;;;;;;;28.33;20.60;;;10.40;99.90;;;;;;4842081;29;20408;-77
2021/03/24 10:45:06;;;;;;;23.98;19.30;;;10.40;99.90;;;;;;4873014;29;20498;-78
2021/03/24 10:47:41;;;;;;;28.45;20.50;;;10.60;99.90;;;;;;4874854;29;20382;-78
2021/03/24 10:50:27;;;;;;;24.50;19.88;;;10.70;99.90;;;;;;4862137;29;20427;-77
2021/03/24 10:53:04;;;;;;;23.70;18.58;;;10.60;99.90;;;;;;4873706;29;20954;-77
2021/03/24 10:55:30;;;;;;;25.45;20.10;;;10.60;99.90;;;;;;4865266;29;20403;-78
2021/03/24 10:58:23;;;;;;;25.50;19.97;;;10.70;99.90;;;;;;4868649;29;20434;-81
2021/03/24 11:00:51;;;;;;;26.38;19.98;;;10.80;99.90;;;;;;4881466;29;20464;-79
2021/03/24 11:04:10;;;;;;;26.35;20.33;;;10.60;99.90;;;;;;4851786;29;20486;-80
2021/03/24 11:06:50;;;;;;;27.17;21.00;;;10.70;99.90;;;;;;4863038;29;20495;-81
2021/03/24 11:09:19;;;;;;;26.52;20.77;;;10.60;99.90;;;;;;4858090;29;20409;-78
2021/03/24 11:11:49;;;;;;;26.03;21.03;;;10.40;99.90;;;;;;4880872;29;20450;-80
2021/03/24 11:14:15;;;;;;;28.08;21.10;;;10.50;99.90;;;;;;4866514;29;20435;-79
2021/03/24 11:17:09;;;;;;;23.88;19.17;;;10.50;99.90;;;;;;4896716;29;20437;-78
2021/03/24 11:19:47;;;;;;;30.13;20.75;;;10.60;99.90;;;;;;4876520;29;20420;-79
2021/03/24 11:22:45;;;;;;;26.38;19.58;;;10.70;99.90;;;;;;4872795;29;20420;-79
2021/03/24 11:25:25;;;;;;;26.17;19.95;;;10.60;99.90;;;;;;4866593;29;20406;-78
2021/03/24 11:27:57;;;;;;;24.77;19.70;;;10.70;99.90;;;;;;4896592;29;20760;-77
2021/03/24 11:30:34;;;;;;;27.17;19.58;;;10.80;99.90;;;;;;4884180;29;20494;-81
2021/03/24 11:33:06;;;;;;;26.10;20.65;;;10.80;99.90;;;;;;4870121;29;20401;-80
2021/03/24 11:35:39;;;;;;;27.92;20.77;;;10.80;99.90;;;;;;4853249;29;21078;-80
2021/03/24 11:38:27;;;;;;;25.52;19.02;;;10.70;99.90;;;;;;4882496;29;20431;-80
2021/03/24 11:40:53;;;;;;;28.15;20.75;;;10.80;99.90;;;;;;4869754;29;20450;-81
2021/03/24 11:43:28;;;;;;;26.30;20.20;;;10.90;99.90;;;;;;4899099;29;20405;-78
2021/03/24 11:46:05;;;;;;;24.27;19.23;;;10.60;99.90;;;;;;4868210;29;20490;-77
2021/03/24 11:48:34;;;;;;;28.30;19.98;;;10.60;99.90;;;;;;4892451;29;20976;-77
2021/03/24 11:51:14;;;;;;;27.13;20.95;;;10.70;99.90;;;;;;4898371;29;20399;-79
2021/03/24 11:53:49;;;;;;;24.27;19.27;;;10.90;99.90;;;;;;4877334;29;20429;-78
2021/03/24 11:56:52;;;;;;;24.93;19.53;;;10.90;99.90;;;;;;4865426;29;20414;-78
2021/03/24 11:59:42;;;;;;;27.70;20.27;;;11.00;99.90;;;;;;4894662;29;20421;-79
2021/03/24 12:02:46;;;;;;;26.10;19.88;;;10.90;99.90;;;;;;4860895;29;20414;-82
2021/03/24 12:05:29;;;;;;;26.33;19.40;;;11.00;99.90;;;;;;4877024;29;20415;-80
2021/03/24 12:08:23;;;;;;;25.70;19.65;;;11.10;99.90;;;;;;4866278;29;20417;-78
2021/03/24 12:10:59;;;;;;;26.40;19.23;;;11.10;99.90;;;;;;4875575;29;20401;-78
2021/03/24 12:13:33;;;;;;;27.15;19.50;;;11.20;99.90;;;;;;4881004;29;20415;-78
2021/03/24 12:16:09;;;;;;;25.45;20.45;;;11.10;99.90;;;;;;4864433;29;20407;-80
2021/03/24 12:18:52;;;;;;;23.90;19.10;;;11.20;99.90;;;;;;4849658;29;20410;-79
2021/03/24 12:21:31;;;;;;;27.67;19.40;;;11.60;99.90;;;;;;4849160;29;21045;-80
2021/03/24 12:23:58;;;;;;;23.85;19.45;;;12.00;99.90;;;;;;4845289;29;20919;-79
2021/03/24 12:26:25;;;;;;;24.15;19.35;;;12.30;99.90;;;;;;4845529;29;20442;-80
2021/03/24 12:28:50;;;;;;;26.47;19.73;;;12.30;99.90;;;;;;4860009;29;20482;-78
2021/03/24 12:31:19;;;;;;;26.20;20.08;;;12.40;99.90;;;;;;4870867;29;20519;-79
2021/03/24 12:33:54;;;;;;;22.77;19.20;;;12.30;99.90;;;;;;4866317;29;20430;-78
2021/03/24 12:36:23;;;;;;;26.07;20.03;;;12.20;99.90;;;;;;4882484;29;20546;-80
2021/03/24 12:39:01;;;;;;;28.63;21.05;;;12.20;99.90;;;;;;4848751;29;20502;-79
2021/03/24 12:41:38;;;;;;;25.95;20.02;;;12.30;99.90;;;;;;4850090;29;20507;-78
2021/03/24 12:44:30;;;;;;;23.52;19.73;;;12.40;99.90;;;;;;4853596;29;20416;-78
2021/03/24 12:47:03;;;;;;;27.75;20.20;;;12.50;99.90;;;;;;4859070;29;20762;-78
2021/03/24 12:49:31;;;;;;;26.73;20.75;;;12.20;99.90;;;;;;4851798;29;20407;-82
2021/03/24 12:52:24;;;;;;;25.37;19.67;;;12.20;99.90;;;;;;4864236;29;20395;-81
2021/03/24 12:54:50;;;;;;;26.07;18.97;;;12.60;99.90;;;;;;4875471;29;20499;-79
2021/03/24 12:57:38;;;;;;;28.60;20.23;;;12.90;99.90;;;;;;4853485;29;20493;-79
2021/03/24 13:00:13;;;;;;;27.85;20.50;;;12.90;99.90;;;;;;4875038;29;20894;-81
2021/03/24 13:02:42;;;;;;;24.33;18.42;;;13.10;99.90;;;;;;4879634;29;20395;-79
2021/03/24 13:05:18;;;;;;;27.10;18.63;;;13.00;99.90;;;;;;4901655;29;20799;-84
2021/03/24 13:07:58;;;;;;;29.20;19.90;;;12.80;99.90;;;;;;4879859;29;20959;-79
2021/03/24 13:11:04;;;;;;;31.88;20.42;;;12.60;99.90;;;;;;4874780;29;21087;-77
2021/03/24 13:13:42;;;;;;;26.70;19.63;;;12.20;99.90;;;;;;4870352;29;20403;-77
2021/03/24 13:16:10;;;;;;;29.75;20.63;;;12.30;99.90;;;;;;4871509;29;20411;-77
2021/03/24 13:18:51;;;;;;;30.42;20.55;;;12.20;99.90;;;;;;4860585;29;20471;-83
2021/03/24 13:21:41;;;;;;;27.45;19.52;;;12.30;99.90;;;;;;4862927;29;20438;-79
2021/03/24 13:24:30;;;;;;;29.58;20.98;;;12.80;99.90;;;;;;4862156;29;20488;-79
2021/03/24 13:26:59;;;;;;;25.17;19.48;;;13.50;99.90;;;;;;4862778;29;20571;-80
2021/03/24 13:29:54;;;;;;;24.20;19.40;;;13.40;99.90;;;;;;4850687;29;20478;-78
2021/03/24 13:32:29;;;;;;;27.17;19.52;;;13.50;99.90;;;;;;4865173;29;20484;-79
2021/03/24 13:35:18;;;;;;;23.35;18.25;;;13.60;99.90;;;;;;4859214;29;20954;-78